createdAt,value
2017-01-13T00:00:46.647Z,980.67
2017-01-13T00:01:46.657Z,980.69
2017-01-13T00:02:46.669Z,980.64
2017-01-13T00:03:46.683Z,980.62
2017-01-13T00:04:46.695Z,980.58
2017-01-13T00:05:46.706Z,980.52
2017-01-13T00:06:46.717Z,980.46
2017-01-13T00:07:46.730Z,980.51
2017-01-13T00:08:46.741Z,980.46
2017-01-13T00:09:46.752Z,980.35
2017-01-13T00:10:46.766Z,980.31
2017-01-13T00:11:46.778Z,980.23
2017-01-13T00:12:46.790Z,980.14
2017-01-13T00:13:46.802Z,980.1
2017-01-13T00:14:46.813Z,980
2017-01-13T00:15:46.828Z,979.94
2017-01-13T00:16:46.841Z,979.83
2017-01-13T00:17:46.851Z,979.79
2017-01-13T00:18:46.861Z,979.68
2017-01-13T00:19:46.872Z,979.66
2017-01-13T00:20:46.886Z,979.62
2017-01-13T00:21:46.896Z,979.56
2017-01-13T00:22:46.910Z,979.53
2017-01-13T00:23:46.923Z,979.54
2017-01-13T00:24:46.933Z,979.41
2017-01-13T00:25:46.947Z,979.42
2017-01-13T00:26:46.961Z,979.35
2017-01-13T00:27:46.971Z,979.32
2017-01-13T00:28:46.985Z,979.25
2017-01-13T00:29:46.995Z,979.19
2017-01-13T00:30:47.007Z,979.17
2017-01-13T00:31:47.020Z,979.03
2017-01-13T00:32:47.031Z,978.85
2017-01-13T00:33:47.095Z,978.82
2017-01-13T00:34:47.054Z,978.8
2017-01-13T00:35:47.066Z,978.74
2017-01-13T00:36:47.079Z,978.68
2017-01-13T00:37:47.090Z,978.72
2017-01-13T00:38:47.102Z,978.63
2017-01-13T00:39:47.114Z,978.62
2017-01-13T00:40:47.126Z,978.63
2017-01-13T00:41:47.138Z,978.64
2017-01-13T00:42:47.150Z,978.61
2017-01-13T00:43:47.213Z,978.57
2017-01-13T00:44:47.176Z,978.62
2017-01-13T00:45:47.188Z,978.62
2017-01-13T00:46:47.197Z,978.57
2017-01-13T00:47:47.210Z,978.59
2017-01-13T00:48:47.221Z,978.52
2017-01-13T00:49:47.233Z,978.52
2017-01-13T00:50:47.247Z,978.48
2017-01-13T00:51:47.257Z,978.45
2017-01-13T00:52:47.269Z,978.41
2017-01-13T00:53:47.282Z,978.36
2017-01-13T00:54:47.293Z,978.28
2017-01-13T00:55:47.306Z,978.3
2017-01-13T00:56:47.317Z,978.2
2017-01-13T00:57:47.334Z,978.16
2017-01-13T00:58:47.344Z,978.15
2017-01-13T00:59:47.352Z,978.15
2017-01-13T01:00:47.366Z,978.09
2017-01-13T01:01:47.377Z,978.07
2017-01-13T01:02:47.391Z,978.07
2017-01-13T01:03:47.401Z,977.95
2017-01-13T01:04:47.413Z,977.93
2017-01-13T01:05:47.427Z,977.96
2017-01-13T01:06:47.437Z,977.96
2017-01-13T01:07:47.450Z,977.96
2017-01-13T01:08:47.462Z,977.89
2017-01-13T01:09:47.473Z,977.69
2017-01-13T01:10:47.483Z,977.66
2017-01-13T01:11:47.496Z,977.56
2017-01-13T01:12:47.508Z,977.58
2017-01-13T01:13:47.520Z,977.52
2017-01-13T01:14:47.533Z,977.54
2017-01-13T01:15:47.544Z,977.54
2017-01-13T01:16:47.555Z,977.5
2017-01-13T01:17:47.569Z,977.36
2017-01-13T01:18:47.580Z,977.28
2017-01-13T01:19:47.592Z,977.27
2017-01-13T01:20:47.605Z,977.26
2017-01-13T01:21:47.614Z,977.29
2017-01-13T01:22:47.628Z,977.27
2017-01-13T01:23:47.839Z,977.09
2017-01-13T01:24:47.653Z,977.19
2017-01-13T01:25:47.661Z,977.13
2017-01-13T01:26:47.675Z,977.1
2017-01-13T01:27:47.688Z,977.03
2017-01-13T01:28:47.699Z,977.02
2017-01-13T01:29:47.712Z,976.94
2017-01-13T01:30:47.723Z,976.84
2017-01-13T01:31:47.734Z,976.86
2017-01-13T01:32:47.771Z,976.8
2017-01-13T01:33:47.758Z,976.81
2017-01-13T01:34:47.772Z,976.76
2017-01-13T01:35:47.781Z,976.76
2017-01-13T01:36:47.793Z,976.66
2017-01-13T01:37:47.806Z,976.62
2017-01-13T01:38:47.818Z,976.56
2017-01-13T01:39:47.829Z,976.53
2017-01-13T01:40:47.842Z,976.44
2017-01-13T01:41:47.853Z,976.37
2017-01-13T01:42:47.866Z,976.24
2017-01-13T01:43:47.876Z,976.25
2017-01-13T01:44:47.888Z,976.25
2017-01-13T01:45:47.902Z,976.17
2017-01-13T01:46:47.913Z,976.09
2017-01-13T01:47:47.923Z,975.99
2017-01-13T01:48:47.937Z,975.95
2017-01-13T01:49:47.950Z,975.93
2017-01-13T01:50:47.960Z,975.81
2017-01-13T01:51:47.972Z,975.76
2017-01-13T01:52:47.985Z,975.69
2017-01-13T01:53:47.997Z,975.62
2017-01-13T01:54:48.007Z,975.56
2017-01-13T01:55:48.020Z,975.53
2017-01-13T01:56:48.033Z,975.54
2017-01-13T01:57:48.044Z,975.42
2017-01-13T01:58:48.054Z,975.33
2017-01-13T01:59:48.069Z,975.36
2017-01-13T02:00:48.080Z,975.27
2017-01-13T02:01:48.091Z,975.28
2017-01-13T02:02:48.109Z,975.22
2017-01-13T02:03:48.114Z,975.24
2017-01-13T02:04:48.127Z,975.16
2017-01-13T02:05:48.138Z,975.12
2017-01-13T02:06:48.151Z,975.1
2017-01-13T02:07:48.163Z,975.04
2017-01-13T02:08:48.174Z,975.06
2017-01-13T02:09:48.185Z,974.96
2017-01-13T02:10:48.197Z,974.93
2017-01-13T02:11:48.210Z,974.86
2017-01-13T02:12:48.221Z,974.86
2017-01-13T02:13:48.234Z,974.77
2017-01-13T02:14:48.261Z,974.83
2017-01-13T02:15:48.258Z,974.71
2017-01-13T02:16:48.268Z,974.63
2017-01-13T02:17:48.282Z,974.61
2017-01-13T02:18:48.294Z,974.56
2017-01-13T02:19:48.333Z,974.53
2017-01-13T02:20:48.318Z,974.34
2017-01-13T02:21:48.329Z,974.41
2017-01-13T02:22:48.341Z,974.39
2017-01-13T02:23:48.352Z,974.41
2017-01-13T02:24:48.365Z,974.33
2017-01-13T02:25:48.386Z,974.31
2017-01-13T02:26:48.388Z,974.38
2017-01-13T02:27:48.400Z,974.42
2017-01-13T02:28:48.414Z,974.33
2017-01-13T02:29:48.423Z,974.29
2017-01-13T02:30:48.438Z,974.36
2017-01-13T02:31:48.447Z,974.32
2017-01-13T02:32:48.458Z,974.3
2017-01-13T02:33:48.473Z,974.2
2017-01-13T02:34:48.482Z,974.11
2017-01-13T02:35:48.494Z,974.02
2017-01-13T02:36:48.509Z,974.04
2017-01-13T02:37:48.550Z,973.95
2017-01-13T02:38:48.530Z,973.88
2017-01-13T02:39:48.545Z,973.86
2017-01-13T02:40:48.554Z,973.76
2017-01-13T02:41:48.570Z,973.79
2017-01-13T02:42:48.577Z,973.74
2017-01-13T02:43:48.588Z,973.74
2017-01-13T02:44:48.651Z,973.68
2017-01-13T02:45:48.611Z,973.51
2017-01-13T02:46:48.623Z,973.56
2017-01-13T02:47:48.636Z,973.75
2017-01-13T02:48:48.647Z,973.75
2017-01-13T02:49:48.660Z,973.65
2017-01-13T02:50:48.672Z,973.52
2017-01-13T02:51:48.721Z,973.43
2017-01-13T02:52:48.697Z,973.31
2017-01-13T02:53:48.706Z,973.58
2017-01-13T02:54:48.719Z,973.46
2017-01-13T02:55:48.730Z,973.33
2017-01-13T02:56:48.742Z,973.28
2017-01-13T02:57:48.754Z,973.06
2017-01-13T02:58:48.767Z,973.14
2017-01-13T02:59:48.777Z,973.14
2017-01-13T03:00:48.789Z,973.02
2017-01-13T03:01:48.802Z,973.09
2017-01-13T03:02:48.814Z,972.89
2017-01-13T03:03:48.829Z,972.87
2017-01-13T03:04:48.839Z,972.71
2017-01-13T03:05:48.848Z,972.68
2017-01-13T03:06:48.861Z,972.56
2017-01-13T03:07:48.871Z,972.47
2017-01-13T03:08:48.884Z,972.46
2017-01-13T03:09:48.894Z,972.43
2017-01-13T03:10:48.907Z,972.43
2017-01-13T03:11:48.921Z,972.4
2017-01-13T03:12:48.930Z,972.4
2017-01-13T03:13:48.943Z,972.4
2017-01-13T03:14:48.955Z,972.35
2017-01-13T03:15:48.966Z,972.38
2017-01-13T03:16:48.979Z,972.36
2017-01-13T03:17:48.990Z,972.28
2017-01-13T03:18:49.001Z,972.18
2017-01-13T03:19:49.012Z,972.23
2017-01-13T03:20:49.025Z,972.21
2017-01-13T03:21:49.037Z,972.21
2017-01-13T03:22:49.048Z,972.3
2017-01-13T03:23:49.061Z,972.27
2017-01-13T03:24:49.071Z,972.3
2017-01-13T03:25:49.083Z,972.27
2017-01-13T03:26:49.095Z,972.37
2017-01-13T03:27:49.106Z,972.31
2017-01-13T03:28:49.117Z,972.28
2017-01-13T03:29:49.130Z,972.21
2017-01-13T03:30:49.142Z,972.16
2017-01-13T03:31:49.154Z,972.22
2017-01-13T03:32:49.166Z,972.21
2017-01-13T03:33:49.175Z,972.18
2017-01-13T03:34:49.188Z,972.15
2017-01-13T03:35:49.204Z,972.14
2017-01-13T03:36:49.217Z,972.11
2017-01-13T03:37:49.224Z,972.07
2017-01-13T03:38:49.238Z,972.08
2017-01-13T03:39:49.249Z,972.16
2017-01-13T03:40:49.259Z,972.05
2017-01-13T03:41:49.271Z,972.13
2017-01-13T03:42:49.283Z,972.07
2017-01-13T03:43:49.295Z,972.02
2017-01-13T03:44:49.320Z,971.96
2017-01-13T03:45:49.318Z,972.06
2017-01-13T03:46:49.330Z,972.09
2017-01-13T03:47:49.341Z,972.15
2017-01-13T03:48:49.356Z,972.28
2017-01-13T03:49:49.365Z,972.26
2017-01-13T03:50:49.376Z,972.39
2017-01-13T03:51:49.388Z,972.38
2017-01-13T03:52:49.399Z,972.44
2017-01-13T03:53:49.412Z,972.42
2017-01-13T03:54:49.423Z,972.46
2017-01-13T03:55:49.435Z,972.48
2017-01-13T03:56:49.445Z,972.26
2017-01-13T03:57:49.458Z,972.33
2017-01-13T03:58:49.469Z,972.23
2017-01-13T03:59:49.480Z,972.23
2017-01-13T04:00:49.495Z,972.23
2017-01-13T04:01:49.504Z,972.17
2017-01-13T04:02:49.515Z,972.2
2017-01-13T04:03:49.526Z,972.12
2017-01-13T04:04:49.540Z,972.04
2017-01-13T04:05:49.551Z,972.05
2017-01-13T04:06:49.562Z,971.98
2017-01-13T04:07:49.574Z,971.88
2017-01-13T04:08:49.587Z,971.81
2017-01-13T04:09:49.596Z,971.81
2017-01-13T04:10:49.610Z,971.74
2017-01-13T04:11:49.621Z,971.73
2017-01-13T04:12:49.634Z,971.69
2017-01-13T04:13:49.644Z,971.63
2017-01-13T04:14:49.656Z,971.62
2017-01-13T04:15:49.669Z,971.57
2017-01-13T04:16:49.682Z,971.59
2017-01-13T04:17:49.691Z,971.65
2017-01-13T04:18:49.703Z,971.54
2017-01-13T04:19:49.715Z,971.49
2017-01-13T04:20:49.725Z,971.55
2017-01-13T04:21:49.745Z,971.46
2017-01-13T04:22:49.750Z,971.51
2017-01-13T04:23:49.763Z,971.53
2017-01-13T04:24:49.772Z,971.66
2017-01-13T04:25:49.784Z,971.52
2017-01-13T04:26:49.797Z,971.48
2017-01-13T04:27:49.809Z,971.5
2017-01-13T04:28:49.819Z,971.42
2017-01-13T04:29:49.831Z,971.45
2017-01-13T04:30:49.842Z,971.44
2017-01-13T04:31:49.855Z,971.4
2017-01-13T04:32:49.866Z,971.42
2017-01-13T04:33:49.878Z,971.4
2017-01-13T04:34:49.890Z,971.37
2017-01-13T04:35:49.901Z,971.37
2017-01-13T04:36:49.914Z,971.36
2017-01-13T04:37:49.926Z,971.31
2017-01-13T04:38:49.942Z,971.31
2017-01-13T04:39:49.949Z,971.33
2017-01-13T04:40:49.960Z,971.39
2017-01-13T04:41:49.974Z,971.33
2017-01-13T04:42:49.983Z,971.37
2017-01-13T04:43:49.994Z,971.38
2017-01-13T04:44:50.008Z,971.37
2017-01-13T04:45:50.019Z,971.34
2017-01-13T04:46:50.031Z,971.38
2017-01-13T04:47:50.045Z,971.36
2017-01-13T04:48:50.055Z,971.4
2017-01-13T04:49:50.066Z,971.36
2017-01-13T04:50:50.077Z,971.43
2017-01-13T04:51:50.091Z,971.36
2017-01-13T04:52:50.101Z,971.46
2017-01-13T04:53:50.112Z,971.42
2017-01-13T04:54:50.123Z,971.37
2017-01-13T04:55:50.136Z,971.43
2017-01-13T04:56:50.151Z,971.48
2017-01-13T04:57:50.160Z,971.54
2017-01-13T04:58:50.171Z,971.54
2017-01-13T04:59:50.181Z,971.69
2017-01-13T05:00:50.195Z,971.61
2017-01-13T05:01:50.205Z,971.56
2017-01-13T05:02:50.217Z,971.83
2017-01-13T05:03:50.229Z,971.85
2017-01-13T05:04:50.240Z,971.79
2017-01-13T05:05:50.253Z,971.86
2017-01-13T05:06:50.263Z,971.84
2017-01-13T05:07:50.276Z,971.89
2017-01-13T05:08:50.285Z,971.81
2017-01-13T05:09:50.297Z,971.91
2017-01-13T05:10:50.310Z,971.82
2017-01-13T05:11:50.322Z,971.84
2017-01-13T05:12:50.334Z,971.77
2017-01-13T05:13:50.345Z,971.82
2017-01-13T05:14:50.357Z,971.73
2017-01-13T05:15:50.370Z,971.87
2017-01-13T05:16:50.381Z,971.72
2017-01-13T05:17:50.392Z,971.66
2017-01-13T05:18:50.405Z,971.7
2017-01-13T05:19:50.415Z,971.67
2017-01-13T05:20:50.427Z,971.69
2017-01-13T05:21:50.440Z,971.69
2017-01-13T05:22:50.450Z,971.67
2017-01-13T05:23:50.462Z,971.74
2017-01-13T05:24:50.474Z,971.71
2017-01-13T05:25:50.501Z,971.65
2017-01-13T05:26:50.497Z,971.6
2017-01-13T05:27:50.509Z,971.6
2017-01-13T05:28:50.522Z,971.59
2017-01-13T05:29:50.533Z,971.73
2017-01-13T05:30:50.543Z,971.67
2017-01-13T05:31:50.555Z,971.63
2017-01-13T05:32:50.567Z,971.69
2017-01-13T05:33:50.579Z,971.67
2017-01-13T05:34:50.593Z,971.55
2017-01-13T05:35:50.604Z,971.5
2017-01-13T05:36:50.614Z,971.59
2017-01-13T05:37:50.626Z,971.61
2017-01-13T05:38:50.638Z,971.63
2017-01-13T05:39:50.652Z,971.67
2017-01-13T05:40:50.661Z,971.66
2017-01-13T05:41:50.672Z,971.72
2017-01-13T05:42:50.684Z,971.73
2017-01-13T05:43:50.699Z,971.85
2017-01-13T05:44:50.708Z,971.7
2017-01-13T05:45:50.719Z,971.75
2017-01-13T05:46:50.730Z,971.78
2017-01-13T05:47:50.743Z,971.82
2017-01-13T05:48:50.756Z,971.84
2017-01-13T05:49:50.768Z,971.74
2017-01-13T05:50:50.777Z,971.64
2017-01-13T05:51:50.789Z,971.71
2017-01-13T05:52:50.801Z,971.73
2017-01-13T05:53:50.813Z,971.83
2017-01-13T05:54:50.825Z,971.77
2017-01-13T05:55:50.838Z,971.73
2017-01-13T05:56:50.849Z,971.76
2017-01-13T05:57:50.859Z,971.8
2017-01-13T05:58:50.873Z,971.85
2017-01-13T05:59:50.883Z,971.44
2017-01-13T06:00:50.894Z,971.81
2017-01-13T06:01:50.906Z,971.98
2017-01-13T06:02:50.919Z,971.82
2017-01-13T06:03:50.931Z,971.91
2017-01-13T06:04:50.943Z,971.94
2017-01-13T06:05:50.954Z,971.89
2017-01-13T06:06:50.966Z,971.9
2017-01-13T06:07:50.982Z,971.79
2017-01-13T06:08:50.989Z,971.86
2017-01-13T06:09:51.002Z,972.1
2017-01-13T06:10:51.011Z,971.92
2017-01-13T06:11:51.028Z,971.88
2017-01-13T06:12:51.037Z,971.91
2017-01-13T06:13:51.049Z,971.94
2017-01-13T06:14:51.059Z,971.83
2017-01-13T06:15:51.074Z,971.91
2017-01-13T06:16:51.084Z,971.92
2017-01-13T06:17:51.094Z,971.93
2017-01-13T06:18:51.106Z,972
2017-01-13T06:19:51.118Z,972.04
2017-01-13T06:20:51.131Z,971.92
2017-01-13T06:21:51.141Z,972.07
2017-01-13T06:22:51.154Z,972.09
2017-01-13T06:23:51.168Z,971.99
2017-01-13T06:24:51.178Z,972.04
2017-01-13T06:25:51.188Z,972.03
2017-01-13T06:26:51.199Z,971.98
2017-01-13T06:27:51.215Z,972.04
2017-01-13T06:28:51.223Z,972.07
2017-01-13T06:29:51.234Z,972.14
2017-01-13T06:30:51.248Z,972.09
2017-01-13T06:31:51.259Z,972.08
2017-01-13T06:32:51.271Z,972.19
2017-01-13T06:33:51.281Z,972.2
2017-01-13T06:34:51.292Z,972.15
2017-01-13T06:35:51.309Z,972.26
2017-01-13T06:36:51.315Z,972.28
2017-01-13T06:37:51.329Z,972.31
2017-01-13T06:38:51.341Z,972.29
2017-01-13T06:39:51.350Z,972.33
2017-01-13T06:40:51.362Z,972.34
2017-01-13T06:41:51.373Z,972.25
2017-01-13T06:42:51.387Z,972.38
2017-01-13T06:43:51.397Z,972.37
2017-01-13T06:44:51.409Z,972.46
2017-01-13T06:45:51.422Z,972.41
2017-01-13T06:46:51.433Z,972.41
2017-01-13T06:47:51.445Z,972.45
2017-01-13T06:48:51.458Z,972.47
2017-01-13T06:49:51.473Z,972.47
2017-01-13T06:50:51.479Z,972.48
2017-01-13T06:51:51.492Z,972.49
2017-01-13T06:52:51.504Z,972.61
2017-01-13T06:53:51.517Z,972.61
2017-01-13T06:54:51.529Z,972.64
2017-01-13T06:55:51.539Z,972.66
2017-01-13T06:56:51.551Z,972.65
2017-01-13T06:57:51.563Z,972.7
2017-01-13T06:58:51.574Z,972.8
2017-01-13T06:59:51.587Z,972.65
2017-01-13T07:00:51.599Z,972.69
2017-01-13T07:01:51.611Z,972.89
2017-01-13T07:02:51.621Z,972.88
2017-01-13T07:03:51.633Z,972.83
2017-01-13T07:04:51.645Z,972.88
2017-01-13T07:05:51.656Z,972.92
2017-01-13T07:06:51.668Z,972.9
2017-01-13T07:07:51.680Z,972.85
2017-01-13T07:08:51.691Z,972.96
2017-01-13T07:09:51.702Z,972.98
2017-01-13T07:10:51.714Z,973.01
2017-01-13T07:11:51.726Z,973.02
2017-01-13T07:12:51.737Z,973.16
2017-01-13T07:13:51.750Z,973.21
2017-01-13T07:14:51.762Z,973.33
2017-01-13T07:15:51.773Z,973.29
2017-01-13T07:16:51.786Z,973.44
2017-01-13T07:17:51.796Z,973.41
2017-01-13T07:18:51.808Z,973.4
2017-01-13T07:19:51.819Z,973.5
2017-01-13T07:20:51.830Z,973.39
2017-01-13T07:21:51.842Z,973.46
2017-01-13T07:22:51.855Z,973.61
2017-01-13T07:23:51.867Z,973.43
2017-01-13T07:24:51.878Z,973.56
2017-01-13T07:25:51.896Z,973.55
2017-01-13T07:26:51.904Z,973.57
2017-01-13T07:27:51.912Z,973.54
2017-01-13T07:28:51.924Z,973.54
2017-01-13T07:29:51.936Z,973.62
2017-01-13T07:30:51.949Z,973.63
2017-01-13T07:31:51.961Z,973.67
2017-01-13T07:32:51.973Z,973.77
2017-01-13T07:33:51.984Z,973.66
2017-01-13T07:34:51.996Z,973.79
2017-01-13T07:35:52.008Z,973.79
2017-01-13T07:36:52.019Z,973.69
2017-01-13T07:37:52.032Z,973.77
2017-01-13T07:38:52.041Z,973.72
2017-01-13T07:39:52.056Z,973.87
2017-01-13T07:40:52.065Z,973.93
2017-01-13T07:41:52.076Z,973.92
2017-01-13T07:42:52.089Z,973.98
2017-01-13T07:43:52.100Z,973.95
2017-01-13T07:44:52.113Z,974.12
2017-01-13T07:45:52.124Z,973.98
2017-01-13T07:46:52.135Z,973.98
2017-01-13T07:47:52.148Z,974.09
2017-01-13T07:48:52.159Z,974.11
2017-01-13T07:49:52.171Z,973.98
2017-01-13T07:50:52.183Z,974.01
2017-01-13T07:51:52.195Z,974.07
2017-01-13T07:52:52.207Z,974.12
2017-01-13T07:53:52.216Z,974.16
2017-01-13T07:54:52.230Z,974.16
2017-01-13T07:55:52.241Z,974.21
2017-01-13T07:56:52.252Z,974.27
2017-01-13T07:57:52.264Z,974.26
2017-01-13T07:58:52.277Z,974.26
2017-01-13T07:59:52.288Z,974.26
2017-01-13T08:00:52.300Z,974.37
2017-01-13T08:01:52.312Z,974.29
2017-01-13T08:02:52.322Z,974.35
2017-01-13T08:03:52.335Z,974.28
2017-01-13T08:04:52.345Z,974.42
2017-01-13T08:05:52.360Z,974.47
2017-01-13T08:06:52.370Z,974.43
2017-01-13T08:07:52.382Z,974.49
2017-01-13T08:08:52.393Z,974.53
2017-01-13T08:09:52.404Z,974.56
2017-01-13T08:10:52.416Z,974.59
2017-01-13T08:11:52.428Z,974.58
2017-01-13T08:12:52.439Z,974.61
2017-01-13T08:13:52.451Z,974.58
2017-01-13T08:14:52.462Z,974.7
2017-01-13T08:15:52.477Z,974.65
2017-01-13T08:16:52.486Z,974.66
2017-01-13T08:17:52.501Z,974.62
2017-01-13T08:18:52.509Z,974.6
2017-01-13T08:19:52.521Z,974.65
2017-01-13T08:20:52.533Z,974.77
2017-01-13T08:21:52.544Z,974.54
2017-01-13T08:22:52.557Z,974.8
2017-01-13T08:23:52.570Z,974.73
2017-01-13T08:24:52.581Z,974.73
2017-01-13T08:25:52.592Z,974.71
2017-01-13T08:26:52.603Z,974.69
2017-01-13T08:27:52.617Z,974.6
2017-01-13T08:28:52.628Z,974.81
2017-01-13T08:29:52.639Z,974.69
2017-01-13T08:30:52.651Z,974.85
2017-01-13T08:31:52.663Z,974.89
2017-01-13T08:32:52.673Z,974.74
2017-01-13T08:33:52.684Z,974.77
2017-01-13T08:34:52.696Z,974.83
2017-01-13T08:35:52.710Z,974.89
2017-01-13T08:36:52.723Z,974.88
2017-01-13T08:37:52.731Z,974.93
2017-01-13T08:38:52.743Z,974.89
2017-01-13T08:39:52.756Z,975
2017-01-13T08:40:52.765Z,974.99
2017-01-13T08:41:52.777Z,975.04
2017-01-13T08:42:52.789Z,974.95
2017-01-13T08:43:52.801Z,974.96
2017-01-13T08:44:52.812Z,975.03
2017-01-13T08:45:52.825Z,975.09
2017-01-13T08:46:52.837Z,974.91
2017-01-13T08:47:52.846Z,975.05
2017-01-13T08:48:52.860Z,975.1
2017-01-13T08:49:52.873Z,975.11
2017-01-13T08:50:52.883Z,975.12
2017-01-13T08:51:52.894Z,974.97
2017-01-13T08:52:52.904Z,975.1
2017-01-13T08:53:52.919Z,975.03
2017-01-13T08:54:52.928Z,975.09
2017-01-13T08:55:52.939Z,975.1
2017-01-13T08:56:52.950Z,975.19
2017-01-13T08:57:52.962Z,975.11
2017-01-13T08:58:52.974Z,975.15
2017-01-13T08:59:52.987Z,975.24
2017-01-13T09:00:52.999Z,975.24
2017-01-13T09:01:53.009Z,975.29
2017-01-13T09:02:53.019Z,975.32
2017-01-13T09:03:53.031Z,975.3
2017-01-13T09:04:53.044Z,975.35
2017-01-13T09:05:53.053Z,975.37
2017-01-13T09:06:53.065Z,975.39
2017-01-13T09:07:53.077Z,975.42
2017-01-13T09:08:53.089Z,975.29
2017-01-13T09:09:53.100Z,975.35
2017-01-13T09:10:53.111Z,975.37
2017-01-13T09:11:53.123Z,975.37
2017-01-13T09:12:53.134Z,975.4
2017-01-13T09:13:53.147Z,975.45
2017-01-13T09:14:53.158Z,975.41
2017-01-13T09:15:53.169Z,975.47
2017-01-13T09:16:53.181Z,975.48
2017-01-13T09:17:53.192Z,975.52
2017-01-13T09:18:53.204Z,975.48
2017-01-13T09:19:53.217Z,975.45
2017-01-13T09:20:53.225Z,975.52
2017-01-13T09:21:53.237Z,975.56
2017-01-13T09:22:53.256Z,975.5
2017-01-13T09:23:53.261Z,975.45
2017-01-13T09:24:53.270Z,975.55
2017-01-13T09:25:53.282Z,975.54
2017-01-13T09:26:53.295Z,975.48
2017-01-13T09:27:53.305Z,975.51
2017-01-13T09:28:53.316Z,975.56
2017-01-13T09:29:53.328Z,975.59
2017-01-13T09:30:53.339Z,975.57
2017-01-13T09:31:53.354Z,975.54
2017-01-13T09:32:53.361Z,975.55
2017-01-13T09:33:53.374Z,975.6
2017-01-13T09:34:53.388Z,975.58
2017-01-13T09:35:53.395Z,975.64
2017-01-13T09:36:53.407Z,975.71
2017-01-13T09:37:53.419Z,975.67
2017-01-13T09:38:53.430Z,975.82
2017-01-13T09:39:53.443Z,975.69
2017-01-13T09:40:53.456Z,975.75
2017-01-13T09:41:53.465Z,975.78
2017-01-13T09:42:53.475Z,975.77
2017-01-13T09:43:53.488Z,975.88
2017-01-13T09:44:53.499Z,975.9
2017-01-13T09:45:53.510Z,975.8
2017-01-13T09:46:53.521Z,975.97
2017-01-13T09:47:53.534Z,975.99
2017-01-13T09:48:53.546Z,975.95
2017-01-13T09:49:53.556Z,976.02
2017-01-13T09:50:53.567Z,976.05
2017-01-13T09:51:53.579Z,976.12
2017-01-13T09:52:53.590Z,976.11
2017-01-13T09:53:53.601Z,976.15
2017-01-13T09:54:53.614Z,976.22
2017-01-13T09:55:53.624Z,976.15
2017-01-13T09:56:53.636Z,976.28
2017-01-13T09:57:53.648Z,976.16
2017-01-13T09:58:53.659Z,976.29
2017-01-13T09:59:53.671Z,976.46
2017-01-13T10:00:53.683Z,976.26
2017-01-13T10:01:53.694Z,976.4
2017-01-13T10:02:53.705Z,976.47
2017-01-13T10:03:53.718Z,976.55
2017-01-13T10:04:53.728Z,976.59
2017-01-13T10:05:53.739Z,976.61
2017-01-13T10:06:53.754Z,976.65
2017-01-13T10:07:53.762Z,976.77
2017-01-13T10:08:53.773Z,976.77
2017-01-13T10:09:53.785Z,976.87
2017-01-13T10:10:53.797Z,976.65
2017-01-13T10:11:53.808Z,976.93
2017-01-13T10:12:53.820Z,976.98
2017-01-13T10:13:53.832Z,976.97
2017-01-13T10:14:53.844Z,977.05
2017-01-13T10:15:53.854Z,977.05
2017-01-13T10:16:53.865Z,977.07
2017-01-13T10:17:53.876Z,977.01
2017-01-13T10:18:53.887Z,977.07
2017-01-13T10:19:53.898Z,977.13
2017-01-13T10:20:53.910Z,977.1
2017-01-13T10:21:53.923Z,977.23
2017-01-13T10:22:53.931Z,977.19
2017-01-13T10:23:53.944Z,977.24
2017-01-13T10:24:53.955Z,977.17
2017-01-13T10:25:53.967Z,977.24
2017-01-13T10:26:53.976Z,977.29
2017-01-13T10:27:53.989Z,977.29
2017-01-13T10:28:54.001Z,977.28
2017-01-13T10:29:54.011Z,977.35
2017-01-13T10:30:54.023Z,977.3
2017-01-13T10:31:54.033Z,977.33
2017-01-13T10:32:54.045Z,977.44
2017-01-13T10:33:54.055Z,977.33
2017-01-13T10:34:54.067Z,977.44
2017-01-13T10:35:54.079Z,977.43
2017-01-13T10:36:54.092Z,977.5
2017-01-13T10:37:54.103Z,977.56
2017-01-13T10:38:54.113Z,977.58
2017-01-13T10:39:54.124Z,977.57
2017-01-13T10:40:54.135Z,977.61
2017-01-13T10:41:54.146Z,977.59
2017-01-13T10:42:54.159Z,977.58
2017-01-13T10:43:54.170Z,977.58
2017-01-13T10:44:54.182Z,977.69
2017-01-13T10:45:54.193Z,977.64
2017-01-13T10:46:54.207Z,977.79
2017-01-13T10:47:54.223Z,977.78
2017-01-13T10:48:54.225Z,977.76
2017-01-13T10:49:54.238Z,977.79
2017-01-13T10:50:54.249Z,977.84
2017-01-13T10:51:54.260Z,977.89
2017-01-13T10:52:54.271Z,977.94
2017-01-13T10:53:54.283Z,977.99
2017-01-13T10:54:54.295Z,978.02
2017-01-13T10:55:54.304Z,978.09
2017-01-13T10:56:54.319Z,978.06
2017-01-13T10:57:54.327Z,978.1
2017-01-13T10:58:54.341Z,978.17
2017-01-13T10:59:54.350Z,978.21
2017-01-13T11:00:54.362Z,978.27
2017-01-13T11:01:54.374Z,978.29
2017-01-13T11:02:54.384Z,978.28
2017-01-13T11:03:54.395Z,978.35
2017-01-13T11:04:54.408Z,978.29
2017-01-13T11:05:54.419Z,978.33
2017-01-13T11:06:54.428Z,978.42
2017-01-13T11:07:54.440Z,978.43
2017-01-13T11:08:54.452Z,978.47
2017-01-13T11:09:54.462Z,978.5
2017-01-13T11:10:54.473Z,978.51
2017-01-13T11:11:54.484Z,978.45
2017-01-13T11:12:54.496Z,978.55
2017-01-13T11:13:54.507Z,978.61
2017-01-13T11:14:54.518Z,978.68
2017-01-13T11:15:54.534Z,978.74
2017-01-13T11:16:54.542Z,978.69
2017-01-13T11:17:54.553Z,978.75
2017-01-13T11:18:54.564Z,978.77
2017-01-13T11:19:54.583Z,978.76
2017-01-13T11:20:54.587Z,978.79
2017-01-13T11:21:54.596Z,978.9
2017-01-13T11:22:54.609Z,978.87
2017-01-13T11:23:54.620Z,978.92
2017-01-13T11:24:54.631Z,978.93
2017-01-13T11:25:54.651Z,978.97
2017-01-13T11:26:54.652Z,979.05
2017-01-13T11:27:54.671Z,978.99
2017-01-13T11:28:54.675Z,979.05
2017-01-13T11:29:54.695Z,979.08
2017-01-13T11:30:54.697Z,979.09
2017-01-13T11:31:54.715Z,979.12
2017-01-13T11:32:54.721Z,979.16
2017-01-13T11:33:54.739Z,979.18
2017-01-13T11:34:54.743Z,979.15
2017-01-13T11:35:54.754Z,979.2
2017-01-13T11:36:54.765Z,979.2
2017-01-13T11:37:54.777Z,979.2
2017-01-13T11:38:54.788Z,979.25
2017-01-13T11:39:54.798Z,979.26
2017-01-13T11:40:54.809Z,979.26
2017-01-13T11:41:54.821Z,979.25
2017-01-13T11:42:54.831Z,979.28
2017-01-13T11:43:54.844Z,979.3
2017-01-13T11:44:54.854Z,979.36
2017-01-13T11:45:54.866Z,979.31
2017-01-13T11:46:54.876Z,979.33
2017-01-13T11:47:54.888Z,979.36
2017-01-13T11:48:54.898Z,979.46
2017-01-13T11:49:54.909Z,979.4
2017-01-13T11:50:54.924Z,979.4
2017-01-13T11:51:54.931Z,979.4
2017-01-13T11:52:54.943Z,979.45
2017-01-13T11:53:54.953Z,979.46
2017-01-13T11:54:54.964Z,979.46
2017-01-13T11:55:54.976Z,979.52
2017-01-13T11:56:54.987Z,979.49
2017-01-13T11:57:54.998Z,979.37
2017-01-13T11:58:55.008Z,979.44
2017-01-13T11:59:55.019Z,979.56
2017-01-13T12:00:55.031Z,979.57
2017-01-13T12:01:55.041Z,979.57
2017-01-13T12:02:55.055Z,979.58
2017-01-13T12:03:55.063Z,979.58
2017-01-13T12:04:55.073Z,979.52
2017-01-13T12:05:55.084Z,979.66
2017-01-13T12:06:55.097Z,979.72
2017-01-13T12:07:55.108Z,979.71
2017-01-13T12:08:55.116Z,979.73
2017-01-13T12:09:55.128Z,979.78
2017-01-13T12:10:55.140Z,979.84
2017-01-13T12:11:55.151Z,979.85
2017-01-13T12:12:55.161Z,979.88
2017-01-13T12:13:55.173Z,979.89
2017-01-13T12:14:55.183Z,979.97
2017-01-13T12:15:55.194Z,979.96
2017-01-13T12:16:55.204Z,979.99
2017-01-13T12:17:55.215Z,980.12
2017-01-13T12:18:55.226Z,980.03
2017-01-13T12:19:55.237Z,980.04
2017-01-13T12:20:55.249Z,980.18
2017-01-13T12:21:55.259Z,980.16
2017-01-13T12:22:55.272Z,980.16
2017-01-13T12:23:55.281Z,980.25
2017-01-13T12:24:55.291Z,980.25
2017-01-13T12:25:55.304Z,980.28
2017-01-13T12:26:55.312Z,980.36
2017-01-13T12:27:55.326Z,980.43
2017-01-13T12:28:55.336Z,980.41
2017-01-13T12:29:55.347Z,980.5
2017-01-13T12:30:55.355Z,980.61